Terminal Aerodrome Forecast
Issued by NWS Twin Cities, MN

Home | Current Version | Previous Version | Graphics & Text | Print | Product List | Glossary On
Versions: 1 2 3 4 5 6 7 8 9 10 11 12 13 14 15 16 17 18 19 20 21 22 23 24 25 26
088
FTUS43 KMPX 241734
TAFMSP
TAF
KMSP 241734Z 2418/2524 30012G20KT P6SM FEW025 BKN120 BKN200
     FM250100 29009KT P6SM SCT120 BKN200
     FM250300 27004KT P6SM SKC
     FM251500 30008KT P6SM SCT050=

USA.gov is the U.S. government's official web portal to all federal, state and local government web resources and services.